Time;durP1;ratioP1;P1;durP2;ratioP2;P2;SDS_P1;SDS_P2;PMS_P1;PMS_P2;Temp;Humidity;BMP_temperature;BMP_pressure;BME280_temperature;BME280_humidity;BME280_pressure;Samples;Min_cycle;Max_cycle;Signal;HPM_P1;HPM_P2
2023/08/07 00:00:35;;;;;;;7.47;2.42;;;16.60;99.90;;;;;;4231048;28;20555;-80
2023/08/07 00:02:36;;;;;;;3.05;1.90;;;16.50;99.90;;;;;;4231100;28;20449;-80
2023/08/07 00:04:37;;;;;;;5.05;1.65;;;16.50;99.90;;;;;;4230195;28;20138;-80
2023/08/07 00:06:37;;;;;;;2.83;1.70;;;16.50;99.90;;;;;;4230473;28;20043;-80
2023/08/07 00:08:38;;;;;;;3.58;2.05;;;16.50;99.90;;;;;;4231324;28;20091;-80
2023/08/07 00:10:39;;;;;;;1.77;1.45;;;16.60;99.90;;;;;;4212981;28;20059;-80
2023/08/07 00:12:40;;;;;;;3.78;1.85;;;16.50;99.90;;;;;;4212646;28;20063;-80
2023/08/07 00:14:41;;;;;;;2.85;1.95;;;16.50;99.90;;;;;;4229603;28;20052;-80
2023/08/07 00:16:42;;;;;;;5.10;1.88;;;16.50;99.90;;;;;;4212518;28;20098;-80
2023/08/07 00:18:42;;;;;;;1.80;1.42;;;16.40;99.90;;;;;;4229054;28;20035;-80
2023/08/07 00:20:43;;;;;;;3.33;1.92;;;16.50;99.90;;;;;;4229699;28;20126;-80
2023/08/07 00:22:44;;;;;;;2.63;1.67;;;16.40;99.90;;;;;;4230659;28;20119;-80
2023/08/07 00:24:44;;;;;;;2.88;1.45;;;16.30;99.90;;;;;;4230639;28;20039;-80
2023/08/07 00:26:45;;;;;;;3.63;1.30;;;16.30;99.90;;;;;;4229340;28;20051;-80
2023/08/07 00:28:46;;;;;;;5.57;1.88;;;16.20;99.90;;;;;;4230900;28;20036;-80
2023/08/07 00:30:47;;;;;;;3.78;1.70;;;16.20;99.90;;;;;;4212086;28;20507;-81
2023/08/07 00:32:47;;;;;;;5.50;2.30;;;16.10;99.90;;;;;;4215314;28;20044;-80
2023/08/07 00:34:48;;;;;;;3.15;1.92;;;16.10;99.90;;;;;;4232376;28;20111;-80
2023/08/07 00:36:49;;;;;;;3.38;1.85;;;16.10;99.90;;;;;;4232428;28;20454;-80
2023/08/07 00:38:50;;;;;;;3.45;1.60;;;16.00;99.90;;;;;;4234001;28;20051;-80
2023/08/07 00:40:51;;;;;;;7.45;1.48;;;16.00;99.90;;;;;;4232562;28;20093;-80
2023/08/07 00:42:51;;;;;;;4.55;1.70;;;15.90;99.90;;;;;;4231918;28;20043;-80
2023/08/07 00:44:52;;;;;;;3.90;1.95;;;16.20;99.90;;;;;;4232474;28;20051;-80
2023/08/07 00:46:54;;;;;;;6.03;1.45;;;15.90;99.90;;;;;;4233465;28;20043;-80
2023/08/07 00:48:55;;;;;;;2.33;1.13;;;15.80;99.90;;;;;;4233167;28;20548;-80
2023/08/07 00:50:56;;;;;;;2.88;1.58;;;15.80;99.90;;;;;;4232274;28;20075;-80
2023/08/07 00:52:57;;;;;;;2.83;1.60;;;15.80;99.90;;;;;;4232061;28;20051;-80
2023/08/07 00:54:58;;;;;;;11.02;1.85;;;15.80;99.90;;;;;;4232244;28;20527;-80
2023/08/07 00:57:11;;;;;;;3.17;1.55;;;15.80;99.90;;;;;;4232272;28;20131;-80
2023/08/07 00:59:14;;;;;;;3.67;1.50;;;15.70;99.90;;;;;;4231749;28;20126;-80
2023/08/07 01:01:15;;;;;;;3.75;1.70;;;15.70;99.90;;;;;;4232278;28;20050;-80
2023/08/07 01:03:16;;;;;;;3.72;1.60;;;15.70;99.90;;;;;;4232017;28;20051;-80
2023/08/07 01:05:18;;;;;;;9.57;2.47;;;15.70;99.90;;;;;;4231921;28;20130;-80
2023/08/07 01:07:19;;;;;;;4.22;1.75;;;15.70;99.90;;;;;;4232003;28;20047;-80
2023/08/07 01:09:20;;;;;;;4.90;1.55;;;15.70;99.90;;;;;;4232921;28;20043;-80
2023/08/07 01:11:46;;;;;;;3.03;1.27;;;15.70;99.90;;;;;;4231886;28;20467;-80
2023/08/07 01:14:07;;;;;;;3.30;1.30;;;15.60;99.90;;;;;;4233209;28;20446;-80
2023/08/07 01:16:20;;;;;;;3.72;1.40;;;15.60;99.90;;;;;;4231762;28;20051;-80
2023/08/07 01:18:26;;;;;;;5.20;1.63;;;15.60;99.90;;;;;;4232052;28;20080;-80
2023/08/07 01:20:27;;;;;;;2.33;1.50;;;15.50;99.90;;;;;;4231781;28;20051;-80
2023/08/07 01:22:27;;;;;;;2.13;1.10;;;15.50;99.90;;;;;;4231779;28;20082;-80
2023/08/07 01:24:28;;;;;;;2.38;1.30;;;15.50;99.90;;;;;;4231775;28;20052;-80
2023/08/07 01:26:29;;;;;;;5.60;1.27;;;15.40;99.90;;;;;;4232576;28;20055;-80
2023/08/07 01:28:45;;;;;;;5.63;1.35;;;15.40;99.90;;;;;;4248811;28;20047;-80
2023/08/07 01:30:54;;;;;;;2.10;1.20;;;15.40;99.90;;;;;;4249529;28;20066;-80
2023/08/07 01:32:59;;;;;;;3.38;1.40;;;15.30;99.90;;;;;;4235810;28;20055;-80
2023/08/07 01:35:02;;;;;;;4.13;1.48;;;15.30;99.90;;;;;;4234854;28;20442;-80
2023/08/07 01:37:04;;;;;;;4.15;2.05;;;15.30;99.90;;;;;;4231771;28;20130;-80
2023/08/07 01:39:06;;;;;;;2.72;1.40;;;15.20;99.90;;;;;;4231798;28;20499;-80
2023/08/07 01:41:07;;;;;;;3.63;1.55;;;15.20;99.90;;;;;;4233068;28;20039;-80
2023/08/07 01:43:09;;;;;;;3.60;1.60;;;15.20;99.90;;;;;;4232627;28;20122;-80
2023/08/07 01:45:09;;;;;;;2.65;1.23;;;15.20;99.90;;;;;;4231496;28;20082;-80
2023/08/07 01:47:10;;;;;;;4.45;1.45;;;15.10;99.90;;;;;;4233344;28;20036;-80
2023/08/07 01:49:11;;;;;;;2.72;1.63;;;15.10;99.90;;;;;;4216402;28;20071;-80
2023/08/07 01:51:11;;;;;;;2.35;1.45;;;15.10;99.90;;;;;;4232100;28;20057;-80
2023/08/07 01:53:12;;;;;;;5.68;1.50;;;15.10;99.90;;;;;;4231553;28;20102;-80
2023/08/07 01:55:17;;;;;;;13.10;2.78;;;15.10;99.90;;;;;;4231275;28;20070;-80
2023/08/07 01:57:18;;;;;;;3.22;1.17;;;15.10;99.90;;;;;;4231393;28;20058;-80
2023/08/07 01:59:18;;;;;;;4.03;1.42;;;15.00;99.90;;;;;;4230798;28;20079;-79
2023/08/07 02:01:19;;;;;;;3.65;1.50;;;15.00;99.90;;;;;;4231254;28;20104;-80
2023/08/07 02:03:20;;;;;;;3.85;1.20;;;15.00;99.90;;;;;;4214341;28;20135;-80
2023/08/07 02:05:23;;;;;;;3.28;1.35;;;15.00;99.90;;;;;;4232510;28;20437;-80
2023/08/07 02:07:24;;;;;;;4.05;2.17;;;15.00;99.90;;;;;;4231204;28;20047;-80
2023/08/07 02:09:25;;;;;;;4.20;1.58;;;15.00;99.90;;;;;;4230979;28;20496;-80
2023/08/07 02:11:25;;;;;;;3.13;1.40;;;14.90;99.90;;;;;;4213947;28;20055;-80
2023/08/07 02:13:26;;;;;;;2.88;1.70;;;15.00;99.90;;;;;;4213544;28;20067;-80
2023/08/07 02:15:27;;;;;;;4.30;1.55;;;14.90;99.90;;;;;;4232318;28;20169;-80
2023/08/07 02:17:29;;;;;;;5.30;1.67;;;14.80;99.90;;;;;;4230752;28;20055;-80
2023/08/07 02:19:30;;;;;;;6.30;1.88;;;14.80;99.90;;;;;;4230926;28;20077;-80
2023/08/07 02:21:32;;;;;;;4.53;1.90;;;14.80;99.90;;;;;;4231060;28;20059;-80
2023/08/07 02:23:34;;;;;;;4.28;2.28;;;14.80;99.90;;;;;;4214060;28;20040;-80
2023/08/07 02:25:34;;;;;;;3.63;1.98;;;15.00;99.90;;;;;;4230210;28;20090;-80
2023/08/07 02:27:35;;;;;;;3.10;1.40;;;14.90;99.90;;;;;;4230660;28;20051;-80
2023/08/07 02:29:36;;;;;;;7.35;2.33;;;14.70;99.90;;;;;;4230922;28;20131;-80
2023/08/07 02:31:37;;;;;;;2.45;1.58;;;14.70;99.90;;;;;;4232145;28;20050;-80
2023/08/07 02:33:37;;;;;;;6.88;1.98;;;14.60;99.90;;;;;;4231931;28;20051;-81
2023/08/07 02:35:38;;;;;;;10.32;2.47;;;14.60;99.90;;;;;;4231812;28;20043;-80
2023/08/07 02:37:38;;;;;;;2.88;1.65;;;14.70;99.90;;;;;;4231283;28;20055;-80
2023/08/07 02:39:39;;;;;;;5.93;1.75;;;14.60;99.90;;;;;;4230815;28;20093;-80
2023/08/07 02:41:40;;;;;;;4.47;1.98;;;14.70;99.90;;;;;;4230638;28;20152;-80
2023/08/07 02:43:40;;;;;;;5.55;1.90;;;14.70;99.90;;;;;;4230447;28;20439;-80
2023/08/07 02:45:41;;;;;;;5.32;1.77;;;14.70;99.90;;;;;;4230376;28;20036;-80
2023/08/07 02:47:42;;;;;;;5.38;1.92;;;14.70;99.90;;;;;;4229805;28;20123;-80
2023/08/07 02:49:42;;;;;;;6.18;2.00;;;14.80;99.90;;;;;;4230506;28;20093;-80
2023/08/07 02:51:43;;;;;;;8.65;1.90;;;15.00;99.90;;;;;;4231748;28;20429;-80
2023/08/07 02:53:43;;;;;;;11.15;3.15;;;14.80;99.90;;;;;;4213356;28;20048;-80
2023/08/07 02:55:44;;;;;;;7.00;1.95;;;14.80;99.90;;;;;;4229435;28;20097;-80
2023/08/07 02:57:45;;;;;;;5.18;1.88;;;14.80;99.90;;;;;;4213310;28;20046;-80
2023/08/07 02:59:46;;;;;;;11.45;1.98;;;14.80;99.90;;;;;;4231403;28;20043;-80
2023/08/07 03:01:46;;;;;;;6.05;1.50;;;14.80;99.90;;;;;;4231318;28;20381;-80
2023/08/07 03:03:47;;;;;;;6.07;1.60;;;14.80;99.90;;;;;;4230178;28;20048;-81
2023/08/07 03:05:51;;;;;;;4.53;1.50;;;14.80;99.90;;;;;;4230302;28;20048;-80
2023/08/07 03:07:52;;;;;;;5.82;1.60;;;14.80;99.90;;;;;;4231417;28;20047;-80
2023/08/07 03:09:52;;;;;;;5.35;1.42;;;15.00;99.90;;;;;;4229978;28;20086;-80
2023/08/07 03:11:53;;;;;;;5.88;1.73;;;14.60;99.90;;;;;;4231117;28;20082;-80
2023/08/07 03:13:54;;;;;;;5.55;1.58;;;14.80;99.90;;;;;;4231259;28;20078;-80
2023/08/07 03:16:01;;;;;;;5.55;1.63;;;14.80;99.90;;;;;;4229900;28;20055;-80
2023/08/07 03:18:01;;;;;;;7.97;2.22;;;14.80;99.90;;;;;;4230819;28;20520;-80
2023/08/07 03:20:03;;;;;;;4.30;1.80;;;14.80;99.90;;;;;;4231250;28;20075;-81
2023/08/07 03:22:04;;;;;;;6.65;1.48;;;14.80;99.90;;;;;;4231178;28;20082;-81
2023/08/07 03:24:05;;;;;;;4.25;1.33;;;14.90;99.90;;;;;;4230026;28;20081;-80
2023/08/07 03:26:08;;;;;;;5.60;1.42;;;14.90;99.90;;;;;;4231085;28;20047;-81
2023/08/07 03:28:09;;;;;;;2.75;1.40;;;14.90;99.90;;;;;;4231588;28;20134;-81
2023/08/07 03:30:10;;;;;;;3.88;1.38;;;15.00;99.90;;;;;;4230005;28;20556;-79
2023/08/07 03:32:11;;;;;;;3.47;1.42;;;14.90;99.90;;;;;;4229888;28;20079;-81
2023/08/07 03:34:11;;;;;;;3.78;1.20;;;15.00;99.90;;;;;;4231037;28;20050;-79
2023/08/07 03:36:12;;;;;;;4.70;1.00;;;14.90;99.90;;;;;;4212803;28;20052;-79
2023/08/07 03:38:13;;;;;;;6.85;1.50;;;15.00;99.90;;;;;;4229681;28;20043;-79
2023/08/07 03:40:13;;;;;;;3.67;1.13;;;15.00;99.90;;;;;;4229660;28;20047;-80
2023/08/07 03:42:15;;;;;;;4.38;0.88;;;15.00;99.90;;;;;;4229643;28;20166;-81
2023/08/07 03:44:15;;;;;;;3.80;1.30;;;15.00;99.90;;;;;;4229888;28;20095;-81
2023/08/07 03:46:16;;;;;;;2.65;1.10;;;15.00;99.90;;;;;;4229674;28;20485;-81
2023/08/07 03:48:17;;;;;;;5.13;1.20;;;15.00;99.90;;;;;;4231359;28;20047;-81
2023/08/07 03:50:17;;;;;;;11.77;1.38;;;15.10;99.90;;;;;;4229601;28;20039;-80
2023/08/07 03:52:18;;;;;;;6.28;1.95;;;15.10;99.90;;;;;;4229656;28;20126;-80
2023/08/07 03:54:19;;;;;;;4.95;1.90;;;15.10;99.90;;;;;;4229660;28;20056;-80
2023/08/07 03:56:19;;;;;;;5.22;1.60;;;15.10;99.90;;;;;;4212770;28;20436;-81
2023/08/07 03:58:20;;;;;;;7.55;1.65;;;15.10;99.90;;;;;;4229595;28;20048;-80
2023/08/07 04:00:20;;;;;;;8.18;2.30;;;15.10;99.90;;;;;;4230576;28;20047;-81
2023/08/07 04:02:21;;;;;;;7.88;1.73;;;15.10;99.90;;;;;;4230711;28;20071;-81
2023/08/07 04:04:22;;;;;;;3.80;1.95;;;15.20;99.90;;;;;;4212547;28;20044;-80
2023/08/07 04:06:23;;;;;;;7.18;2.00;;;15.10;99.90;;;;;;4232950;28;20071;-80
2023/08/07 04:08:24;;;;;;;6.15;1.60;;;15.10;99.90;;;;;;4232947;28;20086;-81
2023/08/07 04:10:25;;;;;;;5.93;1.50;;;15.10;99.90;;;;;;4233587;28;20055;-80
2023/08/07 04:12:25;;;;;;;7.70;1.80;;;15.10;99.90;;;;;;4232303;28;20187;-80
2023/08/07 04:14:26;;;;;;;7.80;1.40;;;15.00;99.90;;;;;;4233128;28;20043;-80
2023/08/07 04:16:27;;;;;;;8.60;1.77;;;15.10;99.90;;;;;;4232643;28;20104;-79
2023/08/07 04:18:27;;;;;;;9.57;1.88;;;15.10;99.90;;;;;;4234004;28;20039;-80
2023/08/07 04:20:28;;;;;;;7.38;1.58;;;15.10;99.90;;;;;;4232429;28;20144;-80
2023/08/07 04:22:29;;;;;;;6.10;1.50;;;15.10;99.90;;;;;;4234353;28;20035;-81
2023/08/07 04:24:29;;;;;;;12.82;1.80;;;14.90;99.90;;;;;;4233884;28;20039;-80
2023/08/07 04:26:30;;;;;;;11.48;1.88;;;15.10;99.90;;;;;;4232617;28;20486;-80
2023/08/07 04:28:30;;;;;;;9.27;2.15;;;15.00;99.90;;;;;;4233908;28;20040;-80
2023/08/07 04:30:31;;;;;;;12.95;2.00;;;14.80;99.90;;;;;;4234062;28;20042;-80
2023/08/07 04:32:32;;;;;;;9.07;2.33;;;15.00;99.90;;;;;;4233314;28;20065;-80
2023/08/07 04:34:32;;;;;;;9.30;2.75;;;15.00;99.90;;;;;;4232644;28;20081;-81
2023/08/07 04:36:33;;;;;;;8.75;1.92;;;14.80;99.90;;;;;;4233785;28;20127;-81
2023/08/07 04:38:34;;;;;;;10.45;2.45;;;15.00;99.90;;;;;;4232352;28;20070;-81
2023/08/07 04:40:34;;;;;;;9.80;2.53;;;15.00;99.90;;;;;;4233953;28;20043;-81
2023/08/07 04:42:35;;;;;;;9.75;2.28;;;15.00;99.90;;;;;;4233688;28;20047;-80
2023/08/07 04:44:36;;;;;;;6.78;1.92;;;15.00;99.90;;;;;;4233473;28;20102;-80
2023/08/07 04:46:36;;;;;;;5.47;1.75;;;15.00;99.90;;;;;;4233053;28;20039;-81
2023/08/07 04:48:37;;;;;;;8.75;2.15;;;14.90;99.90;;;;;;4233523;28;20043;-81
2023/08/07 04:50:38;;;;;;;5.78;1.25;;;15.00;99.90;;;;;;4233577;27;20051;-80
2023/08/07 04:52:38;;;;;;;10.02;2.13;;;15.00;99.90;;;;;;4215560;28;20136;-80
2023/08/07 04:54:39;;;;;;;10.18;2.63;;;15.00;99.90;;;;;;4231831;28;20047;-80
2023/08/07 04:56:42;;;;;;;6.20;1.77;;;14.90;99.90;;;;;;4233491;28;20044;-80
2023/08/07 04:58:42;;;;;;;11.50;2.40;;;15.20;99.90;;;;;;4232122;28;20048;-81
2023/08/07 05:00:43;;;;;;;9.40;1.70;;;15.00;99.90;;;;;;4215357;28;20048;-81
2023/08/07 05:02:44;;;;;;;12.40;2.00;;;15.00;99.90;;;;;;4232060;28;20473;-80
2023/08/07 05:04:44;;;;;;;8.32;1.67;;;15.00;99.90;;;;;;4231655;28;20050;-80
2023/08/07 05:06:45;;;;;;;11.40;2.05;;;15.00;99.90;;;;;;4215377;28;20047;-81
2023/08/07 05:08:46;;;;;;;8.40;2.00;;;15.10;99.90;;;;;;4215460;28;20051;-81
2023/08/07 05:10:46;;;;;;;4.80;1.50;;;15.10;99.90;;;;;;4233355;28;20043;-80
2023/08/07 05:12:47;;;;;;;8.90;2.13;;;15.10;99.90;;;;;;4231568;28;20074;-80
2023/08/07 05:14:48;;;;;;;9.63;2.40;;;15.20;99.90;;;;;;4232082;28;20075;-80
2023/08/07 05:16:48;;;;;;;9.38;2.33;;;15.30;99.90;;;;;;4231872;28;20063;-80
2023/08/07 05:18:49;;;;;;;13.25;2.83;;;15.30;99.90;;;;;;4231869;28;20054;-80
2023/08/07 05:20:50;;;;;;;17.60;2.63;;;15.40;99.90;;;;;;4232050;28;20062;-80
2023/08/07 05:22:51;;;;;;;13.48;2.05;;;15.40;99.90;;;;;;4233090;28;20039;-81
2023/08/07 05:24:52;;;;;;;10.65;2.55;;;15.40;99.90;;;;;;4232339;28;20093;-81
2023/08/07 05:26:52;;;;;;;13.48;2.75;;;15.40;99.90;;;;;;4231454;28;20088;-81
2023/08/07 05:28:56;;;;;;;14.10;2.15;;;15.50;99.90;;;;;;4232005;28;20096;-81
2023/08/07 05:30:56;;;;;;;15.18;2.22;;;15.50;99.90;;;;;;4231945;28;20058;-81
2023/08/07 05:32:57;;;;;;;14.63;2.63;;;15.50;99.90;;;;;;4231707;28;20127;-81
2023/08/07 05:34:57;;;;;;;8.43;1.92;;;15.50;99.90;;;;;;4215091;28;20105;-81
2023/08/07 05:36:58;;;;;;;8.50;2.22;;;15.50;99.90;;;;;;4233040;28;20127;-81
2023/08/07 05:38:59;;;;;;;9.40;2.38;;;15.50;99.90;;;;;;4231599;28;20048;-80
2023/08/07 05:40:59;;;;;;;7.82;2.40;;;15.50;99.90;;;;;;4230971;28;20112;-80
2023/08/07 05:43:00;;;;;;;15.07;2.35;;;15.60;99.90;;;;;;4232936;28;20088;-81
2023/08/07 05:45:01;;;;;;;7.80;2.00;;;15.70;99.90;;;;;;4232744;28;20072;-80
2023/08/07 05:47:02;;;;;;;11.32;2.50;;;15.70;99.90;;;;;;4231247;28;20050;-79
2023/08/07 05:49:02;;;;;;;9.63;3.22;;;15.90;99.90;;;;;;4231373;28;20114;-80
2023/08/07 05:51:03;;;;;;;11.80;2.17;;;15.90;99.90;;;;;;4231341;28;20055;-81
2023/08/07 05:53:04;;;;;;;7.25;1.85;;;16.00;99.90;;;;;;4232012;28;20051;-81
2023/08/07 05:55:05;;;;;;;8.20;2.03;;;16.00;99.90;;;;;;4231429;28;20441;-80
2023/08/07 05:57:06;;;;;;;9.00;1.85;;;15.90;99.90;;;;;;4231407;28;20122;-81
2023/08/07 05:59:07;;;;;;;14.93;1.88;;;15.90;99.90;;;;;;4232630;28;20047;-81
2023/08/07 06:01:07;;;;;;;20.63;2.67;;;15.80;99.90;;;;;;4232393;28;20048;-81
2023/08/07 06:03:08;;;;;;;10.35;1.88;;;15.70;99.90;;;;;;4231920;28;20069;-81
2023/08/07 06:05:10;;;;;;;10.88;2.78;;;15.70;99.90;;;;;;4232766;28;20050;-81
2023/08/07 06:07:11;;;;;;;15.85;2.80;;;15.70;99.90;;;;;;4230977;28;20051;-81
2023/08/07 06:09:12;;;;;;;11.13;2.35;;;15.60;99.90;;;;;;4232367;28;20507;-81
2023/08/07 06:11:13;;;;;;;7.28;2.00;;;15.70;99.90;;;;;;4230674;28;20085;-81
2023/08/07 06:13:13;;;;;;;11.02;1.85;;;15.70;99.90;;;;;;4231959;28;20422;-81
2023/08/07 06:15:14;;;;;;;21.58;3.28;;;15.80;99.90;;;;;;4232142;28;20403;-81
2023/08/07 06:17:15;;;;;;;11.35;1.75;;;15.90;99.90;;;;;;4231681;28;20487;-81
2023/08/07 06:19:15;;;;;;;9.23;1.92;;;16.00;99.90;;;;;;4232563;28;20039;-81
2023/08/07 06:21:16;;;;;;;7.93;1.65;;;16.10;99.90;;;;;;4232494;28;20083;-81
2023/08/07 06:23:17;;;;;;;9.15;1.30;;;16.20;99.90;;;;;;4231963;28;20042;-81
2023/08/07 06:25:19;;;;;;;8.23;2.00;;;16.20;99.90;;;;;;4230620;28;20048;-81
2023/08/07 06:27:21;;;;;;;7.35;1.50;;;16.20;99.90;;;;;;4230492;28;20086;-81
2023/08/07 06:29:22;;;;;;;9.68;1.60;;;16.20;99.90;;;;;;4229641;28;20122;-81
2023/08/07 06:31:23;;;;;;;7.47;1.50;;;16.10;99.90;;;;;;4230202;28;20044;-81
2023/08/07 06:33:24;;;;;;;5.10;1.55;;;16.30;99.90;;;;;;4231781;28;20122;-81
2023/08/07 06:35:25;;;;;;;6.93;1.42;;;16.10;99.90;;;;;;4231760;28;20039;-81
2023/08/07 06:37:25;;;;;;;9.68;1.52;;;16.30;99.90;;;;;;4231734;28;20047;-81
2023/08/07 06:39:26;;;;;;;9.85;1.70;;;16.40;99.90;;;;;;4231644;28;20471;-81
2023/08/07 06:41:27;;;;;;;11.25;1.58;;;16.40;99.90;;;;;;4230529;28;20550;-81
2023/08/07 06:43:27;;;;;;;5.90;1.88;;;16.30;99.90;;;;;;4213787;28;20048;-81
2023/08/07 06:45:28;;;;;;;7.40;1.30;;;16.20;99.90;;;;;;4231179;28;20077;-81
2023/08/07 06:47:29;;;;;;;10.75;1.52;;;16.00;99.90;;;;;;4230223;28;20174;-81
2023/08/07 06:49:31;;;;;;;15.70;2.70;;;16.00;99.90;;;;;;4230792;28;20475;-81
2023/08/07 06:51:32;;;;;;;10.98;1.92;;;15.90;99.90;;;;;;4230294;28;20047;-80
2023/08/07 06:53:32;;;;;;;10.15;1.90;;;15.80;99.90;;;;;;4230556;28;20127;-81
2023/08/07 06:55:33;;;;;;;10.05;1.80;;;15.80;99.90;;;;;;4230285;28;20047;-80
2023/08/07 06:57:34;;;;;;;9.07;2.63;;;15.80;99.90;;;;;;4229945;28;20415;-81
2023/08/07 06:59:35;;;;;;;6.95;1.70;;;15.80;99.90;;;;;;4231511;28;20483;-81
2023/08/07 07:01:36;;;;;;;12.38;1.90;;;15.80;99.90;;;;;;4213301;28;20058;-80
2023/08/07 07:03:36;;;;;;;12.18;2.35;;;16.00;99.90;;;;;;4231366;28;20507;-81
2023/08/07 07:05:37;;;;;;;7.40;1.98;;;15.90;99.90;;;;;;4230564;28;20047;-80
2023/08/07 07:07:38;;;;;;;7.80;1.73;;;15.80;99.90;;;;;;4229770;28;20040;-81
2023/08/07 07:09:39;;;;;;;7.72;2.58;;;15.90;99.90;;;;;;4231454;28;20039;-81
2023/08/07 07:11:39;;;;;;;9.95;1.42;;;15.90;99.90;;;;;;4231248;28;20432;-81
2023/08/07 07:13:41;;;;;;;7.30;2.22;;;15.80;99.90;;;;;;4231300;28;20134;-81
2023/08/07 07:15:42;;;;;;;18.58;2.47;;;15.80;99.90;;;;;;4231212;28;20456;-81
2023/08/07 07:17:42;;;;;;;10.45;1.60;;;15.80;99.90;;;;;;4229820;28;20065;-81
2023/08/07 07:19:43;;;;;;;10.48;1.88;;;15.80;99.90;;;;;;4229918;28;20096;-81
2023/08/07 07:21:44;;;;;;;12.65;1.88;;;15.80;99.90;;;;;;4230071;28;20503;-81
2023/08/07 07:23:44;;;;;;;7.75;1.60;;;15.80;99.90;;;;;;4230136;28;20126;-81
2023/08/07 07:25:45;;;;;;;9.63;1.85;;;15.90;99.90;;;;;;4230076;28;20130;-81
2023/08/07 07:27:46;;;;;;;9.57;1.83;;;15.90;99.90;;;;;;4229280;28;20044;-81
2023/08/07 07:29:47;;;;;;;11.02;1.92;;;16.00;99.90;;;;;;4231133;28;20043;-81
2023/08/07 07:31:47;;;;;;;8.02;1.77;;;16.20;99.90;;;;;;4231038;28;20071;-81
2023/08/07 07:33:48;;;;;;;5.45;1.85;;;16.30;99.90;;;;;;4231013;28;20040;-81
2023/08/07 07:35:49;;;;;;;6.63;2.63;;;16.40;99.90;;;;;;4229733;28;20048;-81
2023/08/07 07:37:49;;;;;;;7.40;2.33;;;16.50;99.90;;;;;;4229677;28;20505;-81
2023/08/07 07:39:50;;;;;;;11.93;2.03;;;16.50;99.90;;;;;;4230949;28;20104;-81
2023/08/07 07:41:51;;;;;;;13.43;2.33;;;16.60;99.90;;;;;;4212011;28;20056;-81
2023/08/07 07:43:51;;;;;;;5.38;1.40;;;16.60;99.90;;;;;;4229682;28;20098;-81
2023/08/07 07:45:52;;;;;;;7.47;1.80;;;16.70;99.90;;;;;;4212514;28;20102;-81
2023/08/07 07:47:53;;;;;;;11.13;2.58;;;16.80;99.90;;;;;;4212438;28;20051;-81
2023/08/07 07:50:07;;;;;;;8.50;1.83;;;16.90;99.90;;;;;;4212645;28;20158;-81
2023/08/07 07:52:08;;;;;;;5.60;1.63;;;17.10;99.90;;;;;;4230275;28;20055;-81
2023/08/07 07:54:08;;;;;;;11.07;2.15;;;17.20;99.90;;;;;;4229615;28;20130;-81
2023/08/07 07:56:10;;;;;;;6.60;2.15;;;17.20;99.90;;;;;;4230712;28;20043;-81
2023/08/07 07:58:11;;;;;;;6.97;2.58;;;17.10;99.90;;;;;;4229451;28;20054;-81
2023/08/07 08:00:13;;;;;;;9.10;1.90;;;17.00;99.90;;;;;;4230768;28;20047;-81
2023/08/07 08:02:15;;;;;;;11.18;1.48;;;16.80;99.90;;;;;;4229437;28;20522;-80
2023/08/07 08:04:16;;;;;;;6.38;1.52;;;16.60;99.90;;;;;;4230427;28;20119;-79
2023/08/07 08:06:17;;;;;;;6.03;1.10;;;16.50;99.90;;;;;;4231255;28;20050;-81
2023/08/07 08:08:17;;;;;;;10.07;1.65;;;16.30;99.90;;;;;;4230822;28;20136;-81
2023/08/07 08:10:18;;;;;;;7.60;1.83;;;16.20;99.90;;;;;;4230839;28;20098;-81
2023/08/07 08:12:19;;;;;;;8.10;1.83;;;16.20;99.90;;;;;;4229007;28;20148;-81
2023/08/07 08:14:19;;;;;;;13.45;2.28;;;16.10;99.90;;;;;;4229288;28;20044;-81
2023/08/07 08:16:20;;;;;;;8.68;1.95;;;16.00;99.90;;;;;;4229364;28;20532;-81
2023/08/07 08:18:21;;;;;;;13.48;2.05;;;16.10;99.90;;;;;;4230386;28;20511;-81
2023/08/07 08:20:22;;;;;;;6.13;1.70;;;16.10;99.90;;;;;;4229274;28;20682;-81
2023/08/07 08:22:22;;;;;;;5.78;2.03;;;16.10;99.90;;;;;;4229374;28;20071;-81
2023/08/07 08:24:23;;;;;;;9.10;2.13;;;16.20;99.90;;;;;;4228585;28;20043;-81
2023/08/07 08:26:24;;;;;;;7.40;2.15;;;16.50;99.90;;;;;;4229054;28;20047;-81
2023/08/07 08:28:24;;;;;;;5.00;1.65;;;16.90;99.90;;;;;;4229268;28;20051;-81
2023/08/07 08:30:25;;;;;;;9.18;2.22;;;17.30;99.90;;;;;;4230090;28;20035;-81
2023/08/07 08:32:26;;;;;;;10.93;1.63;;;17.70;99.90;;;;;;4212473;28;20088;-81
2023/08/07 08:34:27;;;;;;;9.80;2.03;;;17.90;99.90;;;;;;4229146;28;20096;-81
2023/08/07 08:36:28;;;;;;;11.23;1.70;;;17.90;99.90;;;;;;4229101;28;20589;-82
2023/08/07 08:38:32;;;;;;;6.95;1.40;;;17.80;99.90;;;;;;4229071;28;20055;-80
2023/08/07 08:40:34;;;;;;;7.25;1.38;;;17.80;99.90;;;;;;4212760;28;20106;-80
2023/08/07 08:42:37;;;;;;;12.63;1.92;;;17.90;99.90;;;;;;4228978;28;20127;-80
2023/08/07 08:44:39;;;;;;;8.30;1.20;;;17.90;99.90;;;;;;4229162;28;20401;-80
2023/08/07 08:46:42;;;;;;;5.43;1.55;;;17.90;99.90;;;;;;4228442;28;20177;-80
2023/08/07 08:48:49;;;;;;;5.57;1.90;;;18.00;99.90;;;;;;4230462;28;20051;-80
2023/08/07 08:50:52;;;;;;;15.38;1.92;;;18.20;99.90;;;;;;4228855;28;20075;-80
2023/08/07 08:52:55;;;;;;;8.02;1.60;;;18.50;99.90;;;;;;4230559;28;20453;-80
2023/08/07 08:54:57;;;;;;;13.57;3.58;;;18.80;99.90;;;;;;4233409;27;20050;-80
2023/08/07 08:56:59;;;;;;;8.52;1.67;;;18.90;99.90;;;;;;4233338;28;20410;-80
2023/08/07 08:59:00;;;;;;;8.15;1.25;;;19.10;99.90;;;;;;4214694;28;20044;-82
2023/08/07 09:01:01;;;;;;;8.85;1.70;;;19.20;99.90;;;;;;4232229;28;20040;-80
2023/08/07 09:03:03;;;;;;;8.35;1.58;;;19.40;99.90;;;;;;4215308;28;20080;-80
2023/08/07 09:05:04;;;;;;;7.97;1.92;;;19.50;99.90;;;;;;4215485;28;20060;-80
2023/08/07 09:07:06;;;;;;;7.82;1.70;;;19.50;99.90;;;;;;4232062;28;20228;-80
2023/08/07 09:09:08;;;;;;;6.63;1.65;;;19.40;99.90;;;;;;4232885;28;20036;-80
2023/08/07 09:11:10;;;;;;;12.48;2.00;;;19.30;99.90;;;;;;4232968;28;20096;-80
2023/08/07 09:13:14;;;;;;;9.90;1.75;;;19.40;99.90;;;;;;4233172;28;20048;-82
2023/08/07 09:15:18;;;;;;;7.38;1.50;;;19.30;99.90;;;;;;4233345;28;20507;-80
2023/08/07 09:17:20;;;;;;;11.18;2.00;;;19.30;99.90;;;;;;4232730;28;20046;-80
2023/08/07 09:19:21;;;;;;;10.00;1.63;;;19.20;99.90;;;;;;4233349;27;20147;-80
2023/08/07 09:21:22;;;;;;;11.13;1.80;;;19.00;99.90;;;;;;4232941;28;20043;-80
2023/08/07 09:23:24;;;;;;;12.13;1.58;;;18.70;99.90;;;;;;4233137;28;20426;-80
2023/08/07 09:25:32;;;;;;;8.60;1.80;;;18.60;99.90;;;;;;4232571;27;20113;-80
2023/08/07 09:27:35;;;;;;;6.80;2.00;;;18.80;99.90;;;;;;4232798;28;20039;-80
2023/08/07 09:29:36;;;;;;;6.95;1.65;;;19.20;99.90;;;;;;4232747;28;20051;-80
2023/08/07 09:31:37;;;;;;;11.88;1.70;;;19.60;99.90;;;;;;4233062;28;20429;-79
2023/08/07 09:33:39;;;;;;;10.90;2.17;;;20.00;99.90;;;;;;4231390;28;20225;-80
2023/08/07 09:35:40;;;;;;;8.73;2.53;;;20.40;99.90;;;;;;4232913;28;20039;-80
2023/08/07 09:37:43;;;;;;;9.55;2.92;;;20.50;99.90;;;;;;4232533;28;20083;-80
2023/08/07 09:39:44;;;;;;;6.97;1.20;;;20.30;99.90;;;;;;4232796;28;20049;-81
2023/08/07 09:41:51;;;;;;;6.90;1.45;;;20.20;99.90;;;;;;4232856;28;20087;-81
2023/08/07 09:43:51;;;;;;;12.02;1.77;;;20.30;99.90;;;;;;4232814;28;20036;-81
2023/08/07 09:45:52;;;;;;;6.53;1.40;;;20.50;99.90;;;;;;4232186;28;20092;-81
2023/08/07 09:48:00;;;;;;;7.75;2.08;;;20.70;99.90;;;;;;4232786;28;20479;-81
2023/08/07 09:50:01;;;;;;;5.97;1.10;;;20.80;99.90;;;;;;4232725;28;20039;-81
2023/08/07 09:52:07;;;;;;;2.70;1.15;;;21.00;99.90;;;;;;4232469;28;20070;-81
2023/08/07 09:54:08;;;;;;;10.77;1.38;;;21.10;99.90;;;;;;4230744;28;20044;-81
2023/08/07 09:56:09;;;;;;;6.30;1.88;;;21.00;99.90;;;;;;4231501;28;20093;-81
2023/08/07 09:58:12;;;;;;;8.13;1.55;;;20.70;99.90;;;;;;4232581;28;20411;-81
2023/08/07 10:00:19;;;;;;;8.10;1.67;;;20.30;99.90;;;;;;4231165;28;20125;-81
2023/08/07 10:02:20;;;;;;;13.07;1.92;;;20.00;99.90;;;;;;4232155;28;20044;-80
2023/08/07 10:04:24;;;;;;;6.25;1.80;;;19.70;99.90;;;;;;4231807;28;20043;-81
2023/08/07 10:06:25;;;;;;;6.22;1.50;;;19.50;99.90;;;;;;4232250;28;20055;-81
2023/08/07 10:08:28;;;;;;;7.35;1.77;;;19.30;99.90;;;;;;4231177;28;20044;-81
2023/08/07 10:10:28;;;;;;;11.13;1.55;;;19.20;99.90;;;;;;4232143;28;20051;-81
2023/08/07 10:12:30;;;;;;;6.15;2.30;;;19.20;99.90;;;;;;4232068;28;20590;-80
2023/08/07 10:14:30;;;;;;;7.30;1.38;;;19.30;99.90;;;;;;4231383;28;20052;-81
2023/08/07 10:16:32;;;;;;;6.20;1.33;;;19.40;99.90;;;;;;4230752;28;20395;-81
2023/08/07 10:18:34;;;;;;;11.45;3.08;;;19.80;99.90;;;;;;4232292;27;20103;-81
2023/08/07 10:20:35;;;;;;;6.32;1.38;;;20.10;99.90;;;;;;4232217;28;20055;-80
2023/08/07 10:22:38;;;;;;;11.50;2.45;;;20.30;99.90;;;;;;4213781;28;20491;-81
2023/08/07 10:24:42;;;;;;;7.03;1.30;;;20.40;99.90;;;;;;4230097;28;20047;-81
2023/08/07 10:26:45;;;;;;;6.00;1.77;;;20.30;99.90;;;;;;4230770;28;20572;-81
2023/08/07 10:28:46;;;;;;;4.07;1.25;;;20.20;99.90;;;;;;4230646;28;20117;-80
2023/08/07 10:30:48;;;;;;;8.10;2.25;;;20.10;99.90;;;;;;4230844;28;20051;-81